2021-10-18 12:10:58 Find the results of "

klol

" for you

Rock 101 KLOL - Houston's Rock Station

Rock 101 KLOL is Houston's legendary Rock Station reborn from the ashes of corporate destruction. The Legend Continues online 24/7 Internet Radio at it's best. Listen Live Now!

Rock 101 KLOL - Houston, TX - Listen Online

Rock 101 KLOL is an internet radio station from Houston that plays Rock genre of music. Houston's legendary rock station lives again. Corporate assassins hospitalized...

KLOL - Wikipedia

KLOL (101.1 MHz "Mega 101") is a commercial FM radio station in Houston, Texas.It is owned by Audacy, Inc. and airs a Spanish-language Latin pop radio format.KLOL serves as the Spanish-language flagship station for the Houston Texans football team.

Urban Dictionary: klol

A combination of OK and Lol. As in someone agreeing with something and finding it amusing (Or as the case may be, just using Lol as a sentence filler).

Rock 101 KLOL Listen Live - Houston, United States | Online ...

Rock 101 KLOL is an internet radio station from Houston that plays Rock genre of music. Houston's legendary rock station lives again. Corporate assassins hospitalized the mighty 101 for nearly 8 years, but now she is back with a vengeance.

Videos for Klol

See more videos for Klol

Rock 101 KLOL - About Us

KLOL achieved victory in early 1981 against format rival KILT-FM (who changed format to country and remains so to this day). Shortly thereafter, KLOL would have another rival in 97ROCK (KSRR) and one of the fiercest AOR battles of the 1980s commenced. KLOL once again won the battle as KSRR flipped to Top 40 as KKHT in 1986 (now KHMX).

AirNav: KLOL - Derby Field Airport

KLOL : 111453Z AUTO 35012KT 10SM OVC032 05/M02 A2990 RMK AO2 SLP120 T00501017 53000 TAF; NOTAMs; Click for the latest NOTAMs: NOTAMs are issued by the DoD/FAA and ...

Klol - Image Results

More Klol images

AWC - METeorological Aerodrome Reports (METARs)

Data at: 2047 UTC 22 Sep 2021. KLOL 221953Z AUTO 19009KT 10SM CLR 28/M02 A3021 RMK AO2 SLP201 T02831022. KLOL 221853Z AUTO 15003KT CLR A3024 RMK AO2 SLPNO PWINO FZRANO PNO $. KLOL 221753Z AUTO 23004KT FEW002 A3027 RMK AO2 SLPNO 6//// 58004 PWINO FZRANO PNO $. KLOL 221653Z AUTO 00000KT CLR A3029 RMK AO2 SLPNO PWINO FZRANO PNO $.

Houston Spanish Music - KLOL-FM | Mega 101.1 FM

Mega 101.1 FM is el hogar del español en Houston. Escucha en vivo gratuitamente con tu teléfono, computadora, o tableta aquí. KLOL-FM es una emisora de Audacy.